sensor_id;sensor_type;location;lat;lon;timestamp;pressure;altitude;pressure_sealevel;temperature;humidity
6196;BME280;3131;42.630;23.382;2022-08-21T00:02:15;93850.10;;;18.87;100.00
6196;BME280;3131;42.630;23.382;2022-08-21T00:04:46;93849.98;;;18.84;100.00
6196;BME280;3131;42.630;23.382;2022-08-21T00:07:16;93833.98;;;18.90;100.00
6196;BME280;3131;42.630;23.382;2022-08-21T00:09:46;93834.41;;;18.98;100.00
6196;BME280;3131;42.630;23.382;2022-08-21T00:12:16;93827.05;;;19.03;100.00
6196;BME280;3131;42.630;23.382;2022-08-21T00:14:45;93826.53;;;19.08;100.00
6196;BME280;3131;42.630;23.382;2022-08-21T00:17:15;93822.85;;;19.10;100.00
6196;BME280;3131;42.630;23.382;2022-08-21T00:19:44;93825.67;;;19.15;100.00
6196;BME280;3131;42.630;23.382;2022-08-21T00:22:13;93827.11;;;19.18;100.00
6196;BME280;3131;42.630;23.382;2022-08-21T00:24:42;93832.67;;;19.25;100.00
6196;BME280;3131;42.630;23.382;2022-08-21T00:27:12;93821.95;;;19.26;100.00
6196;BME280;3131;42.630;23.382;2022-08-21T00:29:41;93825.49;;;19.21;100.00
6196;BME280;3131;42.630;23.382;2022-08-21T00:32:11;93829.17;;;19.18;100.00
6196;BME280;3131;42.630;23.382;2022-08-21T00:34:40;93830.52;;;19.10;100.00
6196;BME280;3131;42.630;23.382;2022-08-21T00:37:09;93826.16;;;19.19;100.00
6196;BME280;3131;42.630;23.382;2022-08-21T00:39:39;93823.72;;;19.25;100.00
6196;BME280;3131;42.630;23.382;2022-08-21T00:42:08;93830.57;;;19.25;100.00
6196;BME280;3131;42.630;23.382;2022-08-21T00:44:37;93830.33;;;19.16;100.00
6196;BME280;3131;42.630;23.382;2022-08-21T00:47:07;93826.05;;;19.08;100.00
6196;BME280;3131;42.630;23.382;2022-08-21T00:49:37;93835.51;;;19.04;100.00
6196;BME280;3131;42.630;23.382;2022-08-21T00:52:08;93840.13;;;19.04;100.00
6196;BME280;3131;42.630;23.382;2022-08-21T00:54:40;93843.81;;;19.01;100.00
6196;BME280;3131;42.630;23.382;2022-08-21T00:57:12;93837.73;;;19.07;100.00
6196;BME280;3131;42.630;23.382;2022-08-21T00:59:44;93836.38;;;19.19;100.00
6196;BME280;3131;42.630;23.382;2022-08-21T01:02:15;93833.16;;;19.21;100.00
6196;BME280;3131;42.630;23.382;2022-08-21T01:04:45;93830.94;;;19.18;100.00
6196;BME280;3131;42.630;23.382;2022-08-21T01:07:14;93822.85;;;19.10;100.00
6196;BME280;3131;42.630;23.382;2022-08-21T01:09:46;93819.14;;;19.17;100.00
6196;BME280;3131;42.630;23.382;2022-08-21T01:12:16;93806.05;;;19.16;100.00
6196;BME280;3131;42.630;23.382;2022-08-21T01:14:45;93813.84;;;19.22;100.00
6196;BME280;3131;42.630;23.382;2022-08-21T01:17:16;93811.02;;;19.13;100.00
6196;BME280;3131;42.630;23.382;2022-08-21T01:19:46;93804.36;;;19.04;100.00
6196;BME280;3131;42.630;23.382;2022-08-21T01:22:15;93806.13;;;19.04;100.00
6196;BME280;3131;42.630;23.382;2022-08-21T01:24:44;93809.13;;;19.07;100.00
6196;BME280;3131;42.630;23.382;2022-08-21T01:27:14;93804.84;;;19.04;100.00
6196;BME280;3131;42.630;23.382;2022-08-21T01:29:46;93798.04;;;18.92;100.00
6196;BME280;3131;42.630;23.382;2022-08-21T01:32:17;93808.08;;;18.93;100.00
6196;BME280;3131;42.630;23.382;2022-08-21T01:34:49;93806.00;;;18.93;100.00
6196;BME280;3131;42.630;23.382;2022-08-21T01:37:21;93808.23;;;18.96;100.00
6196;BME280;3131;42.630;23.382;2022-08-21T01:39:50;93803.33;;;18.90;100.00
6196;BME280;3131;42.630;23.382;2022-08-21T01:42:19;93809.08;;;18.88;100.00
6196;BME280;3131;42.630;23.382;2022-08-21T01:44:49;93807.83;;;18.84;100.00
6196;BME280;3131;42.630;23.382;2022-08-21T01:47:18;93801.44;;;18.80;100.00
6196;BME280;3131;42.630;23.382;2022-08-21T01:49:47;93799.09;;;18.74;100.00
6196;BME280;3131;42.630;23.382;2022-08-21T01:52:17;93802.74;;;18.68;100.00
6196;BME280;3131;42.630;23.382;2022-08-21T01:54:46;93805.63;;;18.65;100.00
6196;BME280;3131;42.630;23.382;2022-08-21T01:57:16;93801.67;;;18.62;100.00
6196;BME280;3131;42.630;23.382;2022-08-21T01:59:45;93807.59;;;18.59;100.00
6196;BME280;3131;42.630;23.382;2022-08-21T02:02:14;93810.15;;;18.59;100.00
6196;BME280;3131;42.630;23.382;2022-08-21T02:04:43;93807.77;;;18.53;100.00
6196;BME280;3131;42.630;23.382;2022-08-21T02:07:12;93803.81;;;18.46;100.00
6196;BME280;3131;42.630;23.382;2022-08-21T02:09:42;93800.92;;;18.45;100.00
6196;BME280;3131;42.630;23.382;2022-08-21T02:12:11;93803.19;;;18.40;100.00
6196;BME280;3131;42.630;23.382;2022-08-21T02:14:41;93807.96;;;18.39;100.00
6196;BME280;3131;42.630;23.382;2022-08-21T02:17:10;93811.17;;;18.37;100.00
6196;BME280;3131;42.630;23.382;2022-08-21T02:19:40;93824.25;;;18.38;100.00
6196;BME280;3131;42.630;23.382;2022-08-21T02:22:09;93814.06;;;18.34;100.00
6196;BME280;3131;42.630;23.382;2022-08-21T02:27:19;93817.08;;;18.38;100.00
6196;BME280;3131;42.630;23.382;2022-08-21T02:29:48;93826.50;;;18.29;100.00
6196;BME280;3131;42.630;23.382;2022-08-21T02:32:18;93823.97;;;18.25;100.00
6196;BME280;3131;42.630;23.382;2022-08-21T02:34:49;93827.00;;;18.24;100.00
6196;BME280;3131;42.630;23.382;2022-08-21T02:37:18;93824.30;;;18.22;100.00
6196;BME280;3131;42.630;23.382;2022-08-21T02:39:47;93823.16;;;18.20;100.00
6196;BME280;3131;42.630;23.382;2022-08-21T02:42:17;93823.03;;;18.18;100.00
6196;BME280;3131;42.630;23.382;2022-08-21T02:44:46;93819.50;;;18.23;100.00
6196;BME280;3131;42.630;23.382;2022-08-21T02:47:16;93819.17;;;18.26;100.00
6196;BME280;3131;42.630;23.382;2022-08-21T02:52:25;93821.55;;;18.31;100.00
6196;BME280;3131;42.630;23.382;2022-08-21T02:54:54;93819.96;;;18.26;100.00
6196;BME280;3131;42.630;23.382;2022-08-21T02:57:24;93827.48;;;18.24;100.00
6196;BME280;3131;42.630;23.382;2022-08-21T02:59:53;93825.88;;;18.23;100.00
6196;BME280;3131;42.630;23.382;2022-08-21T03:02:22;93833.87;;;18.24;100.00
6196;BME280;3131;42.630;23.382;2022-08-21T03:04:52;93830.04;;;18.24;100.00
6196;BME280;3131;42.630;23.382;2022-08-21T03:07:21;93827.94;;;18.23;100.00
6196;BME280;3131;42.630;23.382;2022-08-21T03:09:50;93825.39;;;18.23;100.00
6196;BME280;3131;42.630;23.382;2022-08-21T03:12:20;93826.84;;;18.22;100.00
6196;BME280;3131;42.630;23.382;2022-08-21T03:14:49;93828.91;;;18.22;100.00
6196;BME280;3131;42.630;23.382;2022-08-21T03:17:18;93829.38;;;18.26;100.00
6196;BME280;3131;42.630;23.382;2022-08-21T03:19:47;93819.34;;;18.24;100.00
6196;BME280;3131;42.630;23.382;2022-08-21T03:22:17;93819.18;;;18.30;100.00
6196;BME280;3131;42.630;23.382;2022-08-21T03:24:46;93822.84;;;18.23;100.00
6196;BME280;3131;42.630;23.382;2022-08-21T03:27:15;93832.09;;;18.20;100.00
6196;BME280;3131;42.630;23.382;2022-08-21T03:29:44;93823.34;;;18.19;100.00
6196;BME280;3131;42.630;23.382;2022-08-21T03:32:14;93818.56;;;18.16;100.00
6196;BME280;3131;42.630;23.382;2022-08-21T03:34:43;93821.27;;;18.18;100.00
6196;BME280;3131;42.630;23.382;2022-08-21T03:37:13;93827.81;;;18.21;100.00
6196;BME280;3131;42.630;23.382;2022-08-21T03:39:43;93830.67;;;18.22;100.00
6196;BME280;3131;42.630;23.382;2022-08-21T03:42:12;93833.53;;;18.31;100.00
6196;BME280;3131;42.630;23.382;2022-08-21T03:44:42;93833.55;;;18.27;100.00
6196;BME280;3131;42.630;23.382;2022-08-21T03:47:11;93838.19;;;18.15;100.00
6196;BME280;3131;42.630;23.382;2022-08-21T03:49:40;93830.38;;;18.13;100.00
6196;BME280;3131;42.630;23.382;2022-08-21T03:52:10;93828.47;;;18.06;100.00
6196;BME280;3131;42.630;23.382;2022-08-21T03:54:39;93825.91;;;18.06;100.00
6196;BME280;3131;42.630;23.382;2022-08-21T03:57:09;93830.73;;;17.89;100.00
6196;BME280;3131;42.630;23.382;2022-08-21T03:59:38;93829.77;;;17.82;100.00
6196;BME280;3131;42.630;23.382;2022-08-21T04:02:08;93839.78;;;17.75;100.00
6196;BME280;3131;42.630;23.382;2022-08-21T04:04:38;93835.48;;;17.72;100.00
6196;BME280;3131;42.630;23.382;2022-08-21T04:09:47;93851.45;;;17.90;100.00
6196;BME280;3131;42.630;23.382;2022-08-21T04:12:16;93836.14;;;17.82;100.00
6196;BME280;3131;42.630;23.382;2022-08-21T04:14:46;93832.78;;;17.85;100.00
6196;BME280;3131;42.630;23.382;2022-08-21T04:17:15;93828.64;;;17.89;100.00
6196;BME280;3131;42.630;23.382;2022-08-21T04:19:45;93826.11;;;17.93;100.00
6196;BME280;3131;42.630;23.382;2022-08-21T04:22:14;93832.30;;;17.94;100.00
6196;BME280;3131;42.630;23.382;2022-08-21T04:24:44;93828.33;;;17.96;100.00
6196;BME280;3131;42.630;23.382;2022-08-21T04:27:13;93826.59;;;17.92;100.00
6196;BME280;3131;42.630;23.382;2022-08-21T04:29:42;93826.89;;;17.93;100.00
6196;BME280;3131;42.630;23.382;2022-08-21T04:32:11;93830.88;;;18.00;100.00
6196;BME280;3131;42.630;23.382;2022-08-21T04:34:40;93830.85;;;18.04;100.00
6196;BME280;3131;42.630;23.382;2022-08-21T04:37:15;93829.27;;;18.03;100.00
6196;BME280;3131;42.630;23.382;2022-08-21T04:39:45;93824.17;;;18.03;100.00
6196;BME280;3131;42.630;23.382;2022-08-21T04:42:14;93823.23;;;17.96;100.00
6196;BME280;3131;42.630;23.382;2022-08-21T04:44:48;93832.64;;;17.87;100.00
6196;BME280;3131;42.630;23.382;2022-08-21T04:47:17;93822.27;;;17.89;100.00
6196;BME280;3131;42.630;23.382;2022-08-21T04:49:49;93818.28;;;17.82;100.00
6196;BME280;3131;42.630;23.382;2022-08-21T04:52:21;93817.97;;;17.85;100.00
6196;BME280;3131;42.630;23.382;2022-08-21T04:54:51;93824.20;;;17.86;100.00
6196;BME280;3131;42.630;23.382;2022-08-21T04:57:23;93824.98;;;17.87;100.00
6196;BME280;3131;42.630;23.382;2022-08-21T04:59:54;93821.16;;;17.87;100.00
6196;BME280;3131;42.630;23.382;2022-08-21T05:02:23;93820.18;;;18.00;100.00
6196;BME280;3131;42.630;23.382;2022-08-21T05:04:55;93820.80;;;18.10;100.00
6196;BME280;3131;42.630;23.382;2022-08-21T05:07:26;93817.89;;;18.26;100.00
6196;BME280;3131;42.630;23.382;2022-08-21T05:09:57;93818.22;;;18.23;100.00
6196;BME280;3131;42.630;23.382;2022-08-21T05:12:27;93817.23;;;18.40;100.00
6196;BME280;3131;42.630;23.382;2022-08-21T05:17:42;93818.48;;;18.92;100.00
6196;BME280;3131;42.630;23.382;2022-08-21T05:20:13;93820.78;;;19.10;100.00
6196;BME280;3131;42.630;23.382;2022-08-21T05:22:42;93816.21;;;19.24;100.00
6196;BME280;3131;42.630;23.382;2022-08-21T05:25:12;93823.99;;;19.31;100.00
6196;BME280;3131;42.630;23.382;2022-08-21T05:27:41;93828.80;;;19.53;100.00
6196;BME280;3131;42.630;23.382;2022-08-21T05:30:12;93839.51;;;19.52;100.00
6196;BME280;3131;42.630;23.382;2022-08-21T05:32:41;93843.59;;;19.65;100.00
6196;BME280;3131;42.630;23.382;2022-08-21T05:35:10;93838.05;;;19.81;100.00
6196;BME280;3131;42.630;23.382;2022-08-21T05:37:40;93829.95;;;20.11;100.00
6196;BME280;3131;42.630;23.382;2022-08-21T05:40:11;93830.54;;;20.47;100.00
6196;BME280;3131;42.630;23.382;2022-08-21T05:42:43;93835.60;;;20.80;100.00
6196;BME280;3131;42.630;23.382;2022-08-21T05:45:13;93828.50;;;21.23;100.00
6196;BME280;3131;42.630;23.382;2022-08-21T05:47:42;93828.28;;;21.71;100.00
6196;BME280;3131;42.630;23.382;2022-08-21T05:52:51;93836.05;;;22.28;100.00
6196;BME280;3131;42.630;23.382;2022-08-21T05:58:01;93834.08;;;22.47;100.00
6196;BME280;3131;42.630;23.382;2022-08-21T06:00:30;93842.38;;;22.32;100.00
6196;BME280;3131;42.630;23.382;2022-08-21T06:03:01;93844.00;;;22.22;100.00
6196;BME280;3131;42.630;23.382;2022-08-21T06:05:31;93846.38;;;22.13;100.00
6196;BME280;3131;42.630;23.382;2022-08-21T06:08:00;93848.11;;;22.06;100.00
6196;BME280;3131;42.630;23.382;2022-08-21T06:10:29;93842.02;;;21.96;100.00
6196;BME280;3131;42.630;23.382;2022-08-21T06:12:59;93841.31;;;22.19;100.00
6196;BME280;3131;42.630;23.382;2022-08-21T06:15:28;93846.65;;;22.35;100.00
6196;BME280;3131;42.630;23.382;2022-08-21T06:17:57;93841.84;;;22.36;100.00
6196;BME280;3131;42.630;23.382;2022-08-21T06:20:27;93835.14;;;22.14;100.00
6196;BME280;3131;42.630;23.382;2022-08-21T06:22:57;93839.06;;;22.20;100.00
6196;BME280;3131;42.630;23.382;2022-08-21T06:25:26;93844.45;;;22.32;100.00
6196;BME280;3131;42.630;23.382;2022-08-21T06:28:02;93841.25;;;22.41;100.00
6196;BME280;3131;42.630;23.382;2022-08-21T06:30:31;93841.48;;;22.63;100.00
6196;BME280;3131;42.630;23.382;2022-08-21T06:33:01;93844.95;;;23.08;100.00
6196;BME280;3131;42.630;23.382;2022-08-21T06:35:31;93845.20;;;23.20;100.00
6196;BME280;3131;42.630;23.382;2022-08-21T06:38:00;93849.15;;;23.15;100.00
6196;BME280;3131;42.630;23.382;2022-08-21T06:40:30;93847.80;;;23.33;100.00
6196;BME280;3131;42.630;23.382;2022-08-21T06:43:06;93856.81;;;23.77;100.00
6196;BME280;3131;42.630;23.382;2022-08-21T06:45:35;93858.02;;;24.07;100.00
6196;BME280;3131;42.630;23.382;2022-08-21T06:48:05;93867.00;;;24.41;100.00
6196;BME280;3131;42.630;23.382;2022-08-21T06:50:35;93870.06;;;24.60;100.00
6196;BME280;3131;42.630;23.382;2022-08-21T06:53:07;93871.63;;;25.04;100.00
6196;BME280;3131;42.630;23.382;2022-08-21T06:55:38;93876.95;;;25.22;100.00
6196;BME280;3131;42.630;23.382;2022-08-21T06:58:07;93880.59;;;25.62;100.00
6196;BME280;3131;42.630;23.382;2022-08-21T07:03:23;93891.30;;;25.65;100.00
6196;BME280;3131;42.630;23.382;2022-08-21T07:05:53;93891.49;;;26.02;100.00
6196;BME280;3131;42.630;23.382;2022-08-21T07:08:25;93887.84;;;26.35;100.00
6196;BME280;3131;42.630;23.382;2022-08-21T07:10:56;93888.10;;;26.18;100.00
6196;BME280;3131;42.630;23.382;2022-08-21T07:13:26;93887.87;;;26.19;100.00
6196;BME280;3131;42.630;23.382;2022-08-21T07:15:55;93895.23;;;26.06;100.00
6196;BME280;3131;42.630;23.382;2022-08-21T07:21:03;93890.73;;;26.52;100.00
6196;BME280;3131;42.630;23.382;2022-08-21T07:23:37;93895.09;;;26.01;100.00
6196;BME280;3131;42.630;23.382;2022-08-21T07:26:08;93887.92;;;25.65;100.00
6196;BME280;3131;42.630;23.382;2022-08-21T07:28:37;93880.82;;;25.76;100.00
6196;BME280;3131;42.630;23.382;2022-08-21T07:31:08;93878.48;;;25.68;100.00
6196;BME280;3131;42.630;23.382;2022-08-21T07:33:38;93869.36;;;25.27;100.00
6196;BME280;3131;42.630;23.382;2022-08-21T07:36:08;93869.14;;;25.06;100.00
6196;BME280;3131;42.630;23.382;2022-08-21T07:38:37;93864.47;;;24.76;100.00
6196;BME280;3131;42.630;23.382;2022-08-21T07:43:56;93866.25;;;24.76;100.00
6196;BME280;3131;42.630;23.382;2022-08-21T07:46:26;93863.99;;;24.77;100.00
6196;BME280;3131;42.630;23.382;2022-08-21T07:48:56;93860.58;;;24.83;100.00
6196;BME280;3131;42.630;23.382;2022-08-21T07:51:27;93862.89;;;24.75;100.00
6196;BME280;3131;42.630;23.382;2022-08-21T07:56:44;93865.59;;;24.71;100.00
6196;BME280;3131;42.630;23.382;2022-08-21T07:59:13;93870.12;;;24.76;100.00
6196;BME280;3131;42.630;23.382;2022-08-21T08:01:43;93860.10;;;24.84;100.00
6196;BME280;3131;42.630;23.382;2022-08-21T08:04:13;93863.44;;;25.42;100.00
6196;BME280;3131;42.630;23.382;2022-08-21T08:06:43;93865.02;;;25.59;100.00
6196;BME280;3131;42.630;23.382;2022-08-21T08:11:51;93871.47;;;25.75;100.00
6196;BME280;3131;42.630;23.382;2022-08-21T08:17:01;93865.10;;;25.78;100.00
6196;BME280;3131;42.630;23.382;2022-08-21T08:19:31;93870.53;;;26.35;100.00
6196;BME280;3131;42.630;23.382;2022-08-21T08:22:00;93876.16;;;27.03;100.00
6196;BME280;3131;42.630;23.382;2022-08-21T08:24:29;93876.53;;;27.16;100.00
6196;BME280;3131;42.630;23.382;2022-08-21T08:26:58;93883.33;;;27.01;100.00
6196;BME280;3131;42.630;23.382;2022-08-21T08:29:27;93874.34;;;26.67;100.00
6196;BME280;3131;42.630;23.382;2022-08-21T08:31:58;93875.34;;;26.57;100.00
6196;BME280;3131;42.630;23.382;2022-08-21T08:34:27;93878.90;;;26.47;100.00
6196;BME280;3131;42.630;23.382;2022-08-21T08:36:57;93878.31;;;26.45;100.00
6196;BME280;3131;42.630;23.382;2022-08-21T08:39:27;93890.44;;;26.60;100.00
6196;BME280;3131;42.630;23.382;2022-08-21T08:44:38;93888.33;;;27.21;100.00
6196;BME280;3131;42.630;23.382;2022-08-21T08:47:09;93873.33;;;27.42;100.00
6196;BME280;3131;42.630;23.382;2022-08-21T08:49:46;93884.71;;;27.31;100.00
6196;BME280;3131;42.630;23.382;2022-08-21T08:55:00;93871.28;;;28.04;100.00
6196;BME280;3131;42.630;23.382;2022-08-21T08:57:27;93873.50;;;27.89;100.00
6196;BME280;3131;42.630;23.382;2022-08-21T09:00:06;93872.06;;;28.05;100.00
6196;BME280;3131;42.630;23.382;2022-08-21T09:02:29;93869.98;;;27.83;100.00
6196;BME280;3131;42.630;23.382;2022-08-21T09:05:00;93866.89;;;27.84;100.00
6196;BME280;3131;42.630;23.382;2022-08-21T09:07:34;93865.90;;;27.75;100.00
6196;BME280;3131;42.630;23.382;2022-08-21T09:10:12;93850.09;;;27.44;100.00
6196;BME280;3131;42.630;23.382;2022-08-21T09:12:51;93861.36;;;27.71;100.00
6196;BME280;3131;42.630;23.382;2022-08-21T09:15:25;93865.06;;;27.33;100.00
6196;BME280;3131;42.630;23.382;2022-08-21T09:18:12;93857.95;;;27.59;100.00
6196;BME280;3131;42.630;23.382;2022-08-21T09:20:46;93852.16;;;27.96;100.00
6196;BME280;3131;42.630;23.382;2022-08-21T09:23:22;93854.38;;;28.25;100.00
6196;BME280;3131;42.630;23.382;2022-08-21T09:25:55;93855.11;;;28.11;100.00
6196;BME280;3131;42.630;23.382;2022-08-21T09:28:25;93846.40;;;28.62;98.21
6196;BME280;3131;42.630;23.382;2022-08-21T09:30:56;93849.19;;;28.25;96.86
6196;BME280;3131;42.630;23.382;2022-08-21T09:33:27;93849.52;;;28.87;95.96
6196;BME280;3131;42.630;23.382;2022-08-21T09:35:57;93848.61;;;29.05;91.57
6196;BME280;3131;42.630;23.382;2022-08-21T09:38:29;93854.36;;;29.65;89.18
6196;BME280;3131;42.630;23.382;2022-08-21T09:41:02;93853.42;;;31.89;76.36
6196;BME280;3131;42.630;23.382;2022-08-21T09:43:33;93852.55;;;32.11;68.02
6196;BME280;3131;42.630;23.382;2022-08-21T09:46:07;93850.33;;;30.56;77.98
6196;BME280;3131;42.630;23.382;2022-08-21T09:48:43;93847.39;;;29.99;83.87
6196;BME280;3131;42.630;23.382;2022-08-21T09:51:15;93849.08;;;28.67;88.73
6196;BME280;3131;42.630;23.382;2022-08-21T09:53:48;93843.88;;;27.75;97.33
6196;BME280;3131;42.630;23.382;2022-08-21T09:56:21;93846.41;;;26.76;100.00
6196;BME280;3131;42.630;23.382;2022-08-21T09:59:17;93838.88;;;26.93;100.00
6196;BME280;3131;42.630;23.382;2022-08-21T10:04:32;93830.91;;;26.23;100.00
6196;BME280;3131;42.630;23.382;2022-08-21T10:10:04;93819.72;;;25.79;100.00
6196;BME280;3131;42.630;23.382;2022-08-21T10:15:30;93819.02;;;25.81;100.00
6196;BME280;3131;42.630;23.382;2022-08-21T10:20:51;93823.30;;;26.28;100.00
6196;BME280;3131;42.630;23.382;2022-08-21T10:26:25;93813.44;;;26.90;100.00
6196;BME280;3131;42.630;23.382;2022-08-21T10:31:40;93814.05;;;27.13;100.00
6196;BME280;3131;42.630;23.382;2022-08-21T10:34:16;93814.36;;;27.44;100.00
6196;BME280;3131;42.630;23.382;2022-08-21T10:39:34;93821.64;;;28.33;100.00
6196;BME280;3131;42.630;23.382;2022-08-21T10:45:17;93815.36;;;28.67;98.62
6196;BME280;3131;42.630;23.382;2022-08-21T10:53:50;93806.84;;;29.98;88.83
6196;BME280;3131;42.630;23.382;2022-08-21T10:56:20;93806.00;;;31.63;74.37
6196;BME280;3131;42.630;23.382;2022-08-21T11:02:02;93803.75;;;35.85;49.88
6196;BME280;3131;42.630;23.382;2022-08-21T11:04:34;93798.09;;;37.08;42.51
6196;BME280;3131;42.630;23.382;2022-08-21T11:09:49;93789.45;;;36.57;41.05
6196;BME280;3131;42.630;23.382;2022-08-21T11:15:18;93781.05;;;37.78;39.43
6196;BME280;3131;42.630;23.382;2022-08-21T11:20:33;93773.05;;;37.67;38.45
6196;BME280;3131;42.630;23.382;2022-08-21T11:23:06;93772.65;;;38.09;38.64
6196;BME280;3131;42.630;23.382;2022-08-21T11:28:20;93772.00;;;33.99;46.32
6196;BME280;3131;42.630;23.382;2022-08-21T11:33:50;93765.47;;;34.09;48.50
6196;BME280;3131;42.630;23.382;2022-08-21T11:36:23;93768.37;;;33.85;54.46
6196;BME280;3131;42.630;23.382;2022-08-21T11:41:40;93772.95;;;34.67;49.31
6196;BME280;3131;42.630;23.382;2022-08-21T11:44:14;93770.75;;;34.89;47.26
6196;BME280;3131;42.630;23.382;2022-08-21T11:46:48;93768.83;;;33.36;49.33
6196;BME280;3131;42.630;23.382;2022-08-21T11:52:31;93758.02;;;32.33;59.89
6196;BME280;3131;42.630;23.382;2022-08-21T11:57:46;93750.28;;;30.66;68.32
6196;BME280;3131;42.630;23.382;2022-08-21T12:00:19;93755.27;;;-91.85;82.95
6196;BME280;3131;42.630;23.382;2022-08-21T12:05:33;93741.79;;;28.33;86.50
6196;BME280;3131;42.630;23.382;2022-08-21T12:11:07;93731.90;;;28.32;89.42
6196;BME280;3131;42.630;23.382;2022-08-21T12:16:28;93720.03;;;27.75;100.00
6196;BME280;3131;42.630;23.382;2022-08-21T12:21:51;93735.75;;;27.71;98.88
6196;BME280;3131;42.630;23.382;2022-08-21T12:27:22;93742.11;;;27.21;100.00
6196;BME280;3131;42.630;23.382;2022-08-21T12:29:55;93741.29;;;27.21;99.95
6196;BME280;3131;42.630;23.382;2022-08-21T12:32:29;93743.73;;;26.85;100.00
6196;BME280;3131;42.630;23.382;2022-08-21T12:37:45;93732.41;;;26.77;100.00
6196;BME280;3131;42.630;23.382;2022-08-21T12:42:57;93738.19;;;26.61;100.00
6196;BME280;3131;42.630;23.382;2022-08-21T12:45:30;93739.53;;;26.54;100.00
6196;BME280;3131;42.630;23.382;2022-08-21T12:48:02;93735.30;;;26.51;100.00
6196;BME280;3131;42.630;23.382;2022-08-21T12:53:22;93731.13;;;26.31;100.00
6196;BME280;3131;42.630;23.382;2022-08-21T12:58:32;93727.87;;;25.90;100.00
6196;BME280;3131;42.630;23.382;2022-08-21T13:03:43;93810.75;;;26.01;100.00
6196;BME280;3131;42.630;23.382;2022-08-21T13:06:15;93812.09;;;25.85;100.00
6196;BME280;3131;42.630;23.382;2022-08-21T13:08:48;93800.88;;;25.63;100.00
6196;BME280;3131;42.630;23.382;2022-08-21T13:14:01;93714.34;;;25.44;100.00
6196;BME280;3131;42.630;23.382;2022-08-21T13:16:32;93712.76;;;25.28;100.00
6196;BME280;3131;42.630;23.382;2022-08-21T13:19:05;93716.50;;;25.00;100.00
6196;BME280;3131;42.630;23.382;2022-08-21T13:21:38;93712.45;;;25.11;100.00
6196;BME280;3131;42.630;23.382;2022-08-21T13:24:17;93709.53;;;25.23;100.00
6196;BME280;3131;42.630;23.382;2022-08-21T13:26:47;93700.16;;;25.29;100.00
6196;BME280;3131;42.630;23.382;2022-08-21T13:29:19;93705.55;;;25.36;100.00
6196;BME280;3131;42.630;23.382;2022-08-21T13:31:51;93705.30;;;25.44;100.00
6196;BME280;3131;42.630;23.382;2022-08-21T13:34:23;93696.62;;;25.73;100.00
6196;BME280;3131;42.630;23.382;2022-08-21T13:36:56;93687.27;;;25.97;100.00
6196;BME280;3131;42.630;23.382;2022-08-21T13:39:25;93685.03;;;26.37;100.00
6196;BME280;3131;42.630;23.382;2022-08-21T13:41:56;93682.87;;;26.83;100.00
6196;BME280;3131;42.630;23.382;2022-08-21T13:44:33;93683.55;;;26.78;100.00
6196;BME280;3131;42.630;23.382;2022-08-21T13:47:05;93687.13;;;26.87;100.00
6196;BME280;3131;42.630;23.382;2022-08-21T13:52:25;93695.76;;;27.01;100.00
6196;BME280;3131;42.630;23.382;2022-08-21T13:54:57;93698.37;;;26.71;100.00
6196;BME280;3131;42.630;23.382;2022-08-21T14:00:15;93687.81;;;26.63;100.00
6196;BME280;3131;42.630;23.382;2022-08-21T14:02:46;93686.24;;;26.44;100.00
6196;BME280;3131;42.630;23.382;2022-08-21T14:08:10;93657.87;;;26.07;100.00
6196;BME280;3131;42.630;23.382;2022-08-21T14:10:42;93684.33;;;26.03;100.00
6196;BME280;3131;42.630;23.382;2022-08-21T14:16:15;93677.42;;;25.87;100.00
6196;BME280;3131;42.630;23.382;2022-08-21T14:18:49;93676.52;;;25.57;100.00
6196;BME280;3131;42.630;23.382;2022-08-21T14:24:12;93670.00;;;25.63;100.00
6196;BME280;3131;42.630;23.382;2022-08-21T14:26:49;93669.33;;;25.59;100.00
6196;BME280;3131;42.630;23.382;2022-08-21T14:32:13;93666.43;;;26.38;100.00
6196;BME280;3131;42.630;23.382;2022-08-21T14:34:43;93674.86;;;27.03;100.00
6196;BME280;3131;42.630;23.382;2022-08-21T14:37:12;93683.77;;;27.75;100.00
6196;BME280;3131;42.630;23.382;2022-08-21T14:39:42;93692.59;;;27.86;100.00
6196;BME280;3131;42.630;23.382;2022-08-21T14:42:11;93690.91;;;27.91;100.00
6196;BME280;3131;42.630;23.382;2022-08-21T14:44:40;93683.91;;;27.57;100.00
6196;BME280;3131;42.630;23.382;2022-08-21T14:47:10;93677.86;;;27.65;100.00
6196;BME280;3131;42.630;23.382;2022-08-21T14:49:39;93678.55;;;27.37;100.00
6196;BME280;3131;42.630;23.382;2022-08-21T14:52:08;93676.02;;;27.51;100.00
6196;BME280;3131;42.630;23.382;2022-08-21T14:54:37;93679.03;;;27.37;100.00
6196;BME280;3131;42.630;23.382;2022-08-21T14:57:09;93680.90;;;27.39;100.00
6196;BME280;3131;42.630;23.382;2022-08-21T15:02:20;93659.47;;;26.99;100.00
6196;BME280;3131;42.630;23.382;2022-08-21T15:07:29;93662.64;;;26.31;100.00
6196;BME280;3131;42.630;23.382;2022-08-21T15:12:42;93656.50;;;26.14;100.00
6196;BME280;3131;42.630;23.382;2022-08-21T15:17:57;93647.76;;;25.71;100.00
6196;BME280;3131;42.630;23.382;2022-08-21T15:23:13;93633.94;;;25.66;100.00
6196;BME280;3131;42.630;23.382;2022-08-21T15:28:24;93611.25;;;25.59;100.00
6196;BME280;3131;42.630;23.382;2022-08-21T15:30:54;93613.27;;;25.47;100.00
6196;BME280;3131;42.630;23.382;2022-08-21T15:36:09;93604.22;;;25.75;100.00
6196;BME280;3131;42.630;23.382;2022-08-21T15:41:24;93601.57;;;26.19;100.00
6196;BME280;3131;42.630;23.382;2022-08-21T15:46:43;93605.19;;;26.38;100.00
6196;BME280;3131;42.630;23.382;2022-08-21T15:51:59;93602.56;;;26.36;100.00
6196;BME280;3131;42.630;23.382;2022-08-21T15:57:10;93600.23;;;26.55;100.00
6196;BME280;3131;42.630;23.382;2022-08-21T16:05:08;93604.87;;;26.98;100.00
6196;BME280;3131;42.630;23.382;2022-08-21T16:10:25;93604.43;;;26.68;100.00
6196;BME280;3131;42.630;23.382;2022-08-21T16:15:40;93618.84;;;27.41;100.00
6196;BME280;3131;42.630;23.382;2022-08-21T16:20:57;93635.50;;;28.76;100.00
6196;BME280;3131;42.630;23.382;2022-08-21T16:26:16;93649.77;;;29.94;96.29
6196;BME280;3131;42.630;23.382;2022-08-21T16:31:33;93658.30;;;28.59;100.00